Terminal Aerodrome Forecast
Issued by NWS

Current Version | Previous Version | Text Only | Print | Product List | Glossary Off
Versions: 1 2 3 4 5 6 7 8 9 10 11 12

788
FTUS44 KSJT 270520
TAFSOA
TAF
KSOA 270520Z 2706/2806 17005KT P6SM FEW250
     FM271300 18012G20KT P6SM SCT250
     FM271500 19017G25KT P6SM SCT250
     FM280200 17012KT P6SM SKC=

USA.gov is the U.S. government's official web portal to all federal, state and local government web resources and services.